<?xml version="1.0" encoding="UTF-8" standalone="no" ?>
<gpx xmlns="http://www.topografix.com/GPX/1/1" xmlns:xsi="http://www.w3.org/2001/XMLSchema-instance" xsi:schemaLocation="http://www.topografix.com/GPX/1/1 http://www.topografix.com/GPX/1/1/gpx.xsd" version="1.1" creator="VisuGPX - https://www.visugpx.com">
  <metadata>
    <name>Ligne 19 Vernier-Village - Onex-Cité</name>
  </metadata>
  <trk>
    <name><![CDATA[Ligne 19 Vernier-Village - Onex-Cité_1]]></name>
    <trkseg>
      <trkpt lat="46.21266" lon="6.07913">
        <ele>440.6</ele>
        <time>2020-04-23T21:27:17.000Z</time>
      </trkpt>
      <trkpt lat="46.21281" lon="6.07926">
        <ele>441.1</ele>
        <time>2020-04-23T21:27:20.364Z</time>
      </trkpt>
      <trkpt lat="46.21564" lon="6.08243">
        <ele>443.6</ele>
        <time>2020-04-23T21:28:32.091Z</time>
      </trkpt>
      <trkpt lat="46.21633" lon="6.08333">
        <ele>444</ele>
        <time>2020-04-23T21:28:50.693Z</time>
      </trkpt>
      <trkpt lat="46.21692" lon="6.08418">
        <ele>441.8</ele>
        <time>2020-04-23T21:29:07.399Z</time>
      </trkpt>
      <trkpt lat="46.21702" lon="6.08439">
        <ele>441.7</ele>
        <time>2020-04-23T21:29:10.923Z</time>
      </trkpt>
      <trkpt lat="46.21701" lon="6.08454">
        <ele>441.5</ele>
        <time>2020-04-23T21:29:13.015Z</time>
      </trkpt>
      <trkpt lat="46.21694" lon="6.08487">
        <ele>441</ele>
        <time>2020-04-23T21:29:17.811Z</time>
      </trkpt>
      <trkpt lat="46.2168" lon="6.08526">
        <ele>440.4</ele>
        <time>2020-04-23T21:29:23.930Z</time>
      </trkpt>
      <trkpt lat="46.21665" lon="6.0855">
        <ele>441</ele>
        <time>2020-04-23T21:29:28.298Z</time>
      </trkpt>
      <trkpt lat="46.21639" lon="6.08592">
        <ele>440.7</ele>
        <time>2020-04-23T21:29:36.140Z</time>
      </trkpt>
      <trkpt lat="46.21631" lon="6.08608">
        <ele>440.6</ele>
        <time>2020-04-23T21:29:38.861Z</time>
      </trkpt>
      <trkpt lat="46.21634" lon="6.08638">
        <ele>440.5</ele>
        <time>2020-04-23T21:29:43.054Z</time>
      </trkpt>
      <trkpt lat="46.21644" lon="6.08653">
        <ele>440.6</ele>
        <time>2020-04-23T21:29:45.891Z</time>
      </trkpt>
      <trkpt lat="46.2166" lon="6.08674">
        <ele>439.9</ele>
        <time>2020-04-23T21:29:50.200Z</time>
      </trkpt>
      <trkpt lat="46.21667" lon="6.0869">
        <ele>439.9</ele>
        <time>2020-04-23T21:29:52.883Z</time>
      </trkpt>
      <trkpt lat="46.21713" lon="6.08754">
        <ele>438.1</ele>
        <time>2020-04-23T21:30:05.600Z</time>
      </trkpt>
      <trkpt lat="46.21736" lon="6.0879">
        <ele>437.9</ele>
        <time>2020-04-23T21:30:12.432Z</time>
      </trkpt>
      <trkpt lat="46.21746" lon="6.08813">
        <ele>437.6</ele>
        <time>2020-04-23T21:30:16.127Z</time>
      </trkpt>
      <trkpt lat="46.21799" lon="6.08876">
        <ele>436.3</ele>
        <time>2020-04-23T21:30:29.958Z</time>
      </trkpt>
      <trkpt lat="46.21812" lon="6.08894">
        <ele>436.4</ele>
        <time>2020-04-23T21:30:33.532Z</time>
      </trkpt>
      <trkpt lat="46.21826" lon="6.08918">
        <ele>436.7</ele>
        <time>2020-04-23T21:30:38.012Z</time>
      </trkpt>
      <trkpt lat="46.21844" lon="6.08951">
        <ele>437.7</ele>
        <time>2020-04-23T21:30:43.731Z</time>
      </trkpt>
      <trkpt lat="46.21862" lon="6.09005">
        <ele>436.4</ele>
        <time>2020-04-23T21:30:52.039Z</time>
      </trkpt>
      <trkpt lat="46.21887" lon="6.09122">
        <ele>433.5</ele>
        <time>2020-04-23T21:31:09.004Z</time>
      </trkpt>
      <trkpt lat="46.21893" lon="6.09148">
        <ele>433.4</ele>
        <time>2020-04-23T21:31:12.717Z</time>
      </trkpt>
      <trkpt lat="46.21908" lon="6.09337">
        <ele>426.2</ele>
        <time>2020-04-23T21:31:39.101Z</time>
      </trkpt>
      <trkpt lat="46.21869" lon="6.09524">
        <ele>420.7</ele>
        <time>2020-04-23T21:32:06.144Z</time>
      </trkpt>
      <trkpt lat="46.21841" lon="6.0961">
        <ele>418.2</ele>
        <time>2020-04-23T21:32:19.339Z</time>
      </trkpt>
      <trkpt lat="46.21808" lon="6.09689">
        <ele>415</ele>
        <time>2020-04-23T21:32:32.134Z</time>
      </trkpt>
      <trkpt lat="46.21773" lon="6.09752">
        <ele>411.1</ele>
        <time>2020-04-23T21:32:43.250Z</time>
      </trkpt>
      <trkpt lat="46.21733" lon="6.0981">
        <ele>406.5</ele>
        <time>2020-04-23T21:32:54.597Z</time>
      </trkpt>
      <trkpt lat="46.21702" lon="6.0985">
        <ele>408.4</ele>
        <time>2020-04-23T21:33:02.890Z</time>
      </trkpt>
      <trkpt lat="46.21662" lon="6.09887">
        <ele>411.6</ele>
        <time>2020-04-23T21:33:12.411Z</time>
      </trkpt>
      <trkpt lat="46.21613" lon="6.09935">
        <ele>411.8</ele>
        <time>2020-04-23T21:33:24.322Z</time>
      </trkpt>
      <trkpt lat="46.21581" lon="6.09974">
        <ele>408.7</ele>
        <time>2020-04-23T21:33:32.598Z</time>
      </trkpt>
      <trkpt lat="46.2155" lon="6.10021">
        <ele>409.1</ele>
        <time>2020-04-23T21:33:41.688Z</time>
      </trkpt>
      <trkpt lat="46.21462" lon="6.10161">
        <ele>411</ele>
        <time>2020-04-23T21:34:07.797Z</time>
      </trkpt>
      <trkpt lat="46.21391" lon="6.10259">
        <ele>414.6</ele>
        <time>2020-04-23T21:34:27.517Z</time>
      </trkpt>
      <trkpt lat="46.21333" lon="6.10345">
        <ele>416.6</ele>
        <time>2020-04-23T21:34:44.068Z</time>
      </trkpt>
      <trkpt lat="46.21262" lon="6.10445">
        <ele>419.9</ele>
        <time>2020-04-23T21:35:03.940Z</time>
      </trkpt>
      <trkpt lat="46.21228" lon="6.10505">
        <ele>421.9</ele>
        <time>2020-04-23T21:35:14.709Z</time>
      </trkpt>
      <trkpt lat="46.21153" lon="6.1075">
        <ele>424.3</ele>
        <time>2020-04-23T21:35:51.833Z</time>
      </trkpt>
      <trkpt lat="46.21136" lon="6.10842">
        <ele>426</ele>
        <time>2020-04-23T21:36:04.971Z</time>
      </trkpt>
      <trkpt lat="46.21137" lon="6.10901">
        <ele>425.7</ele>
        <time>2020-04-23T21:36:13.138Z</time>
      </trkpt>
      <trkpt lat="46.21156" lon="6.10961">
        <ele>424</ele>
        <time>2020-04-23T21:36:22.245Z</time>
      </trkpt>
      <trkpt lat="46.21162" lon="6.10992">
        <ele>422.7</ele>
        <time>2020-04-23T21:36:26.787Z</time>
      </trkpt>
      <trkpt lat="46.2115" lon="6.11034">
        <ele>423.3</ele>
        <time>2020-04-23T21:36:33.080Z</time>
      </trkpt>
      <trkpt lat="46.21121" lon="6.1112">
        <ele>425.7</ele>
        <time>2020-04-23T21:36:46.273Z</time>
      </trkpt>
      <trkpt lat="46.21118" lon="6.11248">
        <ele>425.8</ele>
        <time>2020-04-23T21:37:04.073Z</time>
      </trkpt>
      <trkpt lat="46.21116" lon="6.11318">
        <ele>425.7</ele>
        <time>2020-04-23T21:37:13.665Z</time>
      </trkpt>
      <trkpt lat="46.21108" lon="6.11373">
        <ele>426.7</ele>
        <time>2020-04-23T21:37:21.563Z</time>
      </trkpt>
      <trkpt lat="46.21085" lon="6.11452">
        <ele>427.5</ele>
        <time>2020-04-23T21:37:33.388Z</time>
      </trkpt>
      <trkpt lat="46.21069" lon="6.11506">
        <ele>426.9</ele>
        <time>2020-04-23T21:37:41.447Z</time>
      </trkpt>
      <trkpt lat="46.21045" lon="6.11593">
        <ele>422.9</ele>
        <time>2020-04-23T21:37:54.416Z</time>
      </trkpt>
      <trkpt lat="46.20998" lon="6.11806">
        <ele>415.6</ele>
        <time>2020-04-23T21:38:25.409Z</time>
      </trkpt>
      <trkpt lat="46.20953" lon="6.12021">
        <ele>416.8</ele>
        <time>2020-04-23T21:38:56.503Z</time>
      </trkpt>
      <trkpt lat="46.20892" lon="6.12305">
        <ele>417.9</ele>
        <time>2020-04-23T21:39:37.723Z</time>
      </trkpt>
      <trkpt lat="46.20841" lon="6.12556">
        <ele>417.9</ele>
        <time>2020-04-23T21:40:13.986Z</time>
      </trkpt>
      <trkpt lat="46.20831" lon="6.12657">
        <ele>415.3</ele>
        <time>2020-04-23T21:40:28.110Z</time>
      </trkpt>
      <trkpt lat="46.20835" lon="6.12774">
        <ele>415.5</ele>
        <time>2020-04-23T21:40:44.329Z</time>
      </trkpt>
      <trkpt lat="46.20847" lon="6.12925">
        <ele>414.3</ele>
        <time>2020-04-23T21:41:05.380Z</time>
      </trkpt>
      <trkpt lat="46.20866" lon="6.13096">
        <ele>415.9</ele>
        <time>2020-04-23T21:41:29.372Z</time>
      </trkpt>
      <trkpt lat="46.20875" lon="6.13188">
        <ele>416.4</ele>
        <time>2020-04-23T21:41:42.213Z</time>
      </trkpt>
      <trkpt lat="46.20877" lon="6.13261">
        <ele>416.5</ele>
        <time>2020-04-23T21:41:52.332Z</time>
      </trkpt>
      <trkpt lat="46.20869" lon="6.13326">
        <ele>415.9</ele>
        <time>2020-04-23T21:42:01.494Z</time>
      </trkpt>
      <trkpt lat="46.20831" lon="6.13486">
        <ele>411.5</ele>
        <time>2020-04-23T21:42:24.898Z</time>
      </trkpt>
      <trkpt lat="46.20841" lon="6.13548">
        <ele>407.5</ele>
        <time>2020-04-23T21:42:33.731Z</time>
      </trkpt>
      <trkpt lat="46.20931" lon="6.13909">
        <ele>398.6</ele>
        <time>2020-04-23T21:43:26.861Z</time>
      </trkpt>
      <trkpt lat="46.20923" lon="6.13932">
        <ele>396.7</ele>
        <time>2020-04-23T21:43:30.417Z</time>
      </trkpt>
      <trkpt lat="46.20856" lon="6.14058">
        <ele>390.1</ele>
        <time>2020-04-23T21:43:52.466Z</time>
      </trkpt>
      <trkpt lat="46.20845" lon="6.14094">
        <ele>390</ele>
        <time>2020-04-23T21:43:57.891Z</time>
      </trkpt>
      <trkpt lat="46.20843" lon="6.14153">
        <ele>390.6</ele>
        <time>2020-04-23T21:44:06.081Z</time>
      </trkpt>
      <trkpt lat="46.20829" lon="6.14227">
        <ele>389.9</ele>
        <time>2020-04-23T21:44:16.750Z</time>
      </trkpt>
      <trkpt lat="46.20817" lon="6.1424">
        <ele>389.9</ele>
        <time>2020-04-23T21:44:19.740Z</time>
      </trkpt>
      <trkpt lat="46.208" lon="6.14243">
        <ele>390.4</ele>
        <time>2020-04-23T21:44:23.113Z</time>
      </trkpt>
      <trkpt lat="46.2078" lon="6.14236">
        <ele>391</ele>
        <time>2020-04-23T21:44:27.384Z</time>
      </trkpt>
      <trkpt lat="46.20751" lon="6.1421">
        <ele>390.9</ele>
        <time>2020-04-23T21:44:34.166Z</time>
      </trkpt>
      <trkpt lat="46.20721" lon="6.14197">
        <ele>390.9</ele>
        <time>2020-04-23T21:44:40.372Z</time>
      </trkpt>
      <trkpt lat="46.2071" lon="6.142">
        <ele>390.9</ele>
        <time>2020-04-23T21:44:42.645Z</time>
      </trkpt>
      <trkpt lat="46.20699" lon="6.14214">
        <ele>391.1</ele>
        <time>2020-04-23T21:44:45.700Z</time>
      </trkpt>
      <trkpt lat="46.20573" lon="6.14296">
        <ele>381</ele>
        <time>2020-04-23T21:45:13.306Z</time>
      </trkpt>
      <trkpt lat="46.20559" lon="6.14302">
        <ele>380.6</ele>
        <time>2020-04-23T21:45:16.246Z</time>
      </trkpt>
      <trkpt lat="46.20541" lon="6.14286">
        <ele>379.7</ele>
        <time>2020-04-23T21:45:20.350Z</time>
      </trkpt>
      <trkpt lat="46.20534" lon="6.14281">
        <ele>379.2</ele>
        <time>2020-04-23T21:45:22.042Z</time>
      </trkpt>
      <trkpt lat="46.20454" lon="6.14319">
        <ele>378.4</ele>
        <time>2020-04-23T21:45:38.937Z</time>
      </trkpt>
      <trkpt lat="46.20447" lon="6.14317">
        <ele>378.5</ele>
        <time>2020-04-23T21:45:40.235Z</time>
      </trkpt>
      <trkpt lat="46.20442" lon="6.14307">
        <ele>378.5</ele>
        <time>2020-04-23T21:45:41.930Z</time>
      </trkpt>
      <trkpt lat="46.20419" lon="6.14204">
        <ele>375.6</ele>
        <time>2020-04-23T21:45:56.923Z</time>
      </trkpt>
      <trkpt lat="46.20412" lon="6.14116">
        <ele>378.9</ele>
        <time>2020-04-23T21:46:09.191Z</time>
      </trkpt>
      <trkpt lat="46.20365" lon="6.14125">
        <ele>381</ele>
        <time>2020-04-23T21:46:18.713Z</time>
      </trkpt>
      <trkpt lat="46.20347" lon="6.14125">
        <ele>381.8</ele>
        <time>2020-04-23T21:46:22.280Z</time>
      </trkpt>
      <trkpt lat="46.20296" lon="6.14133">
        <ele>385.1</ele>
        <time>2020-04-23T21:46:32.655Z</time>
      </trkpt>
      <trkpt lat="46.20285" lon="6.14129">
        <ele>385.1</ele>
        <time>2020-04-23T21:46:34.891Z</time>
      </trkpt>
      <trkpt lat="46.20203" lon="6.14188">
        <ele>386.3</ele>
        <time>2020-04-23T21:46:53.136Z</time>
      </trkpt>
      <trkpt lat="46.20196" lon="6.1419">
        <ele>386.2</ele>
        <time>2020-04-23T21:46:54.660Z</time>
      </trkpt>
      <trkpt lat="46.20193" lon="6.14186">
        <ele>386.2</ele>
        <time>2020-04-23T21:46:55.450Z</time>
      </trkpt>
      <trkpt lat="46.20179" lon="6.14145">
        <ele>385.6</ele>
        <time>2020-04-23T21:47:01.798Z</time>
      </trkpt>
      <trkpt lat="46.20169" lon="6.1413">
        <ele>385.4</ele>
        <time>2020-04-23T21:47:04.692Z</time>
      </trkpt>
      <trkpt lat="46.20139" lon="6.14046">
        <ele>383.3</ele>
        <time>2020-04-23T21:47:17.720Z</time>
      </trkpt>
      <trkpt lat="46.20131" lon="6.14015">
        <ele>383</ele>
        <time>2020-04-23T21:47:22.234Z</time>
      </trkpt>
      <trkpt lat="46.20143" lon="6.13941">
        <ele>382.7</ele>
        <time>2020-04-23T21:47:32.817Z</time>
      </trkpt>
      <trkpt lat="46.20138" lon="6.13797">
        <ele>380.5</ele>
        <time>2020-04-23T21:47:52.789Z</time>
      </trkpt>
      <trkpt lat="46.20137" lon="6.13781">
        <ele>380.8</ele>
        <time>2020-04-23T21:47:55.030Z</time>
      </trkpt>
      <trkpt lat="46.20132" lon="6.13775">
        <ele>380.8</ele>
        <time>2020-04-23T21:47:56.240Z</time>
      </trkpt>
      <trkpt lat="46.19972" lon="6.13751">
        <ele>381.7</ele>
        <time>2020-04-23T21:48:28.431Z</time>
      </trkpt>
      <trkpt lat="46.19948" lon="6.13748">
        <ele>380.4</ele>
        <time>2020-04-23T21:48:33.419Z</time>
      </trkpt>
      <trkpt lat="46.19877" lon="6.13717">
        <ele>381.6</ele>
        <time>2020-04-23T21:48:48.204Z</time>
      </trkpt>
      <trkpt lat="46.19856" lon="6.13706">
        <ele>381.7</ele>
        <time>2020-04-23T21:48:52.558Z</time>
      </trkpt>
      <trkpt lat="46.19822" lon="6.1368">
        <ele>381.1</ele>
        <time>2020-04-23T21:49:00.304Z</time>
      </trkpt>
      <trkpt lat="46.19782" lon="6.13634">
        <ele>381.5</ele>
        <time>2020-04-23T21:49:10.541Z</time>
      </trkpt>
      <trkpt lat="46.19779" lon="6.13628">
        <ele>381.5</ele>
        <time>2020-04-23T21:49:11.613Z</time>
      </trkpt>
      <trkpt lat="46.19781" lon="6.13617">
        <ele>381.6</ele>
        <time>2020-04-23T21:49:13.129Z</time>
      </trkpt>
      <trkpt lat="46.19978" lon="6.13268">
        <ele>377</ele>
        <time>2020-04-23T21:50:15.520Z</time>
      </trkpt>
      <trkpt lat="46.20001" lon="6.13224">
        <ele>379.9</ele>
        <time>2020-04-23T21:50:23.175Z</time>
      </trkpt>
      <trkpt lat="46.2005" lon="6.1294">
        <ele>378.5</ele>
        <time>2020-04-23T21:51:03.765Z</time>
      </trkpt>
      <trkpt lat="46.20045" lon="6.12926">
        <ele>378.3</ele>
        <time>2020-04-23T21:51:05.806Z</time>
      </trkpt>
      <trkpt lat="46.20033" lon="6.12915">
        <ele>376.8</ele>
        <time>2020-04-23T21:51:08.753Z</time>
      </trkpt>
      <trkpt lat="46.19916" lon="6.12802">
        <ele>380.1</ele>
        <time>2020-04-23T21:51:36.802Z</time>
      </trkpt>
      <trkpt lat="46.19889" lon="6.12784">
        <ele>382.1</ele>
        <time>2020-04-23T21:51:42.854Z</time>
      </trkpt>
      <trkpt lat="46.19848" lon="6.12768">
        <ele>385.1</ele>
        <time>2020-04-23T21:51:51.327Z</time>
      </trkpt>
      <trkpt lat="46.1954" lon="6.12674">
        <ele>390.2</ele>
        <time>2020-04-23T21:52:54.298Z</time>
      </trkpt>
      <trkpt lat="46.1951" lon="6.1266">
        <ele>396.1</ele>
        <time>2020-04-23T21:53:00.532Z</time>
      </trkpt>
      <trkpt lat="46.19492" lon="6.12645">
        <ele>397.9</ele>
        <time>2020-04-23T21:53:04.791Z</time>
      </trkpt>
      <trkpt lat="46.19471" lon="6.12619">
        <ele>400.9</ele>
        <time>2020-04-23T21:53:10.321Z</time>
      </trkpt>
      <trkpt lat="46.19458" lon="6.12586">
        <ele>402.2</ele>
        <time>2020-04-23T21:53:15.576Z</time>
      </trkpt>
      <trkpt lat="46.19423" lon="6.12472">
        <ele>408.7</ele>
        <time>2020-04-23T21:53:32.873Z</time>
      </trkpt>
      <trkpt lat="46.19421" lon="6.12446">
        <ele>408.7</ele>
        <time>2020-04-23T21:53:36.527Z</time>
      </trkpt>
      <trkpt lat="46.19424" lon="6.12424">
        <ele>408.8</ele>
        <time>2020-04-23T21:53:39.618Z</time>
      </trkpt>
      <trkpt lat="46.19431" lon="6.12403">
        <ele>409.3</ele>
        <time>2020-04-23T21:53:42.776Z</time>
      </trkpt>
      <trkpt lat="46.19505" lon="6.12297">
        <ele>413.2</ele>
        <time>2020-04-23T21:54:03.745Z</time>
      </trkpt>
      <trkpt lat="46.196" lon="6.12169">
        <ele>414.9</ele>
        <time>2020-04-23T21:54:29.719Z</time>
      </trkpt>
      <trkpt lat="46.19618" lon="6.12128">
        <ele>417.5</ele>
        <time>2020-04-23T21:54:36.423Z</time>
      </trkpt>
      <trkpt lat="46.1963" lon="6.12098">
        <ele>418.3</ele>
        <time>2020-04-23T21:54:41.254Z</time>
      </trkpt>
      <trkpt lat="46.19635" lon="6.12069">
        <ele>420.9</ele>
        <time>2020-04-23T21:54:45.293Z</time>
      </trkpt>
      <trkpt lat="46.19637" lon="6.12031">
        <ele>421.3</ele>
        <time>2020-04-23T21:54:50.663Z</time>
      </trkpt>
      <trkpt lat="46.19654" lon="6.11706">
        <ele>422.5</ele>
        <time>2020-04-23T21:55:35.753Z</time>
      </trkpt>
      <trkpt lat="46.19659" lon="6.11661">
        <ele>421.2</ele>
        <time>2020-04-23T21:55:42.155Z</time>
      </trkpt>
      <trkpt lat="46.19669" lon="6.11636">
        <ele>421.2</ele>
        <time>2020-04-23T21:55:46.111Z</time>
      </trkpt>
      <trkpt lat="46.19708" lon="6.11593">
        <ele>421.4</ele>
        <time>2020-04-23T21:55:55.877Z</time>
      </trkpt>
      <trkpt lat="46.19709" lon="6.11575">
        <ele>420.8</ele>
        <time>2020-04-23T21:55:58.347Z</time>
      </trkpt>
      <trkpt lat="46.19683" lon="6.11334">
        <ele>416.3</ele>
        <time>2020-04-23T21:56:32.204Z</time>
      </trkpt>
      <trkpt lat="46.19678" lon="6.11321">
        <ele>415.4</ele>
        <time>2020-04-23T21:56:34.233Z</time>
      </trkpt>
      <trkpt lat="46.19674" lon="6.11315">
        <ele>415.2</ele>
        <time>2020-04-23T21:56:35.338Z</time>
      </trkpt>
      <trkpt lat="46.19662" lon="6.11318">
        <ele>415.9</ele>
        <time>2020-04-23T21:56:37.758Z</time>
      </trkpt>
      <trkpt lat="46.19506" lon="6.11371">
        <ele>418.8</ele>
        <time>2020-04-23T21:57:09.800Z</time>
      </trkpt>
      <trkpt lat="46.19494" lon="6.11367">
        <ele>419.3</ele>
        <time>2020-04-23T21:57:12.307Z</time>
      </trkpt>
      <trkpt lat="46.19488" lon="6.11361">
        <ele>419.2</ele>
        <time>2020-04-23T21:57:13.793Z</time>
      </trkpt>
      <trkpt lat="46.1948" lon="6.11335">
        <ele>419</ele>
        <time>2020-04-23T21:57:17.717Z</time>
      </trkpt>
      <trkpt lat="46.19475" lon="6.11298">
        <ele>417.9</ele>
        <time>2020-04-23T21:57:22.892Z</time>
      </trkpt>
      <trkpt lat="46.19471" lon="6.11262">
        <ele>417.6</ele>
        <time>2020-04-23T21:57:28.000Z</time>
      </trkpt>
      <trkpt lat="46.19456" lon="6.11056">
        <ele>413.5</ele>
        <time>2020-04-23T21:57:56.727Z</time>
      </trkpt>
      <trkpt lat="46.19447" lon="6.11005">
        <ele>413.8</ele>
        <time>2020-04-23T21:58:04.047Z</time>
      </trkpt>
      <trkpt lat="46.19433" lon="6.10959">
        <ele>415.2</ele>
        <time>2020-04-23T21:58:11.005Z</time>
      </trkpt>
      <trkpt lat="46.19417" lon="6.10915">
        <ele>418.9</ele>
        <time>2020-04-23T21:58:17.821Z</time>
      </trkpt>
      <trkpt lat="46.19414" lon="6.10893">
        <ele>420.6</ele>
        <time>2020-04-23T21:58:21.013Z</time>
      </trkpt>
      <trkpt lat="46.19411" lon="6.10872">
        <ele>421.4</ele>
        <time>2020-04-23T21:58:23.958Z</time>
      </trkpt>
      <trkpt lat="46.19405" lon="6.1086">
        <ele>421.8</ele>
        <time>2020-04-23T21:58:25.920Z</time>
      </trkpt>
      <trkpt lat="46.19402" lon="6.10824">
        <ele>422.4</ele>
        <time>2020-04-23T21:58:31.009Z</time>
      </trkpt>
      <trkpt lat="46.19399" lon="6.10817">
        <ele>422.2</ele>
        <time>2020-04-23T21:58:32.124Z</time>
      </trkpt>
      <trkpt lat="46.1939" lon="6.10814">
        <ele>422.1</ele>
        <time>2020-04-23T21:58:33.963Z</time>
      </trkpt>
      <trkpt lat="46.19388" lon="6.10811">
        <ele>422</ele>
        <time>2020-04-23T21:58:34.594Z</time>
      </trkpt>
      <trkpt lat="46.19348" lon="6.10712">
        <ele>419.1</ele>
        <time>2020-04-23T21:58:50.421Z</time>
      </trkpt>
      <trkpt lat="46.19319" lon="6.10636">
        <ele>417</ele>
        <time>2020-04-23T21:59:02.433Z</time>
      </trkpt>
      <trkpt lat="46.19296" lon="6.1057">
        <ele>416</ele>
        <time>2020-04-23T21:59:12.637Z</time>
      </trkpt>
      <trkpt lat="46.19285" lon="6.10543">
        <ele>416.4</ele>
        <time>2020-04-23T21:59:17.129Z</time>
      </trkpt>
      <trkpt lat="46.19246" lon="6.10426">
        <ele>419</ele>
        <time>2020-04-23T21:59:35.014Z</time>
      </trkpt>
      <trkpt lat="46.19245" lon="6.10417">
        <ele>419</ele>
        <time>2020-04-23T21:59:36.312Z</time>
      </trkpt>
      <trkpt lat="46.19245" lon="6.10408">
        <ele>419.1</ele>
        <time>2020-04-23T21:59:37.584Z</time>
      </trkpt>
      <trkpt lat="46.19244" lon="6.10405">
        <ele>419.1</ele>
        <time>2020-04-23T21:59:38.120Z</time>
      </trkpt>
      <trkpt lat="46.19241" lon="6.10403">
        <ele>419.1</ele>
        <time>2020-04-23T21:59:38.785Z</time>
      </trkpt>
      <trkpt lat="46.19234" lon="6.10392">
        <ele>419.1</ele>
        <time>2020-04-23T21:59:40.835Z</time>
      </trkpt>
      <trkpt lat="46.19181" lon="6.1023">
        <ele>415.2</ele>
        <time>2020-04-23T22:00:05.572Z</time>
      </trkpt>
      <trkpt lat="46.1918" lon="6.10222">
        <ele>415.1</ele>
        <time>2020-04-23T22:00:06.770Z</time>
      </trkpt>
      <trkpt lat="46.1918" lon="6.10216">
        <ele>415</ele>
        <time>2020-04-23T22:00:07.588Z</time>
      </trkpt>
      <trkpt lat="46.19177" lon="6.10211">
        <ele>415</ele>
        <time>2020-04-23T22:00:08.540Z</time>
      </trkpt>
      <trkpt lat="46.19173" lon="6.10206">
        <ele>415</ele>
        <time>2020-04-23T22:00:09.675Z</time>
      </trkpt>
      <trkpt lat="46.19066" lon="6.09887">
        <ele>413.4</ele>
        <time>2020-04-23T22:00:58.743Z</time>
      </trkpt>
      <trkpt lat="46.19057" lon="6.09872">
        <ele>413.8</ele>
        <time>2020-04-23T22:01:01.583Z</time>
      </trkpt>
      <trkpt lat="46.19051" lon="6.09865">
        <ele>414.1</ele>
        <time>2020-04-23T22:01:03.003Z</time>
      </trkpt>
      <trkpt lat="46.19044" lon="6.09862">
        <ele>414.6</ele>
        <time>2020-04-23T22:01:04.555Z</time>
      </trkpt>
      <trkpt lat="46.19038" lon="6.09864">
        <ele>415.1</ele>
        <time>2020-04-23T22:01:05.853Z</time>
      </trkpt>
      <trkpt lat="46.19003" lon="6.09883">
        <ele>416.5</ele>
        <time>2020-04-23T22:01:13.316Z</time>
      </trkpt>
      <trkpt lat="46.18842" lon="6.09989">
        <ele>422.2</ele>
        <time>2020-04-23T22:01:48.686Z</time>
      </trkpt>
    </trkseg>
  </trk>
</gpx>